KPHD/PHD METAR and TAF weather

Enter ICAO airport designator
Station Type Date Time Source
KPHD METAR 2022/07/01 01:53 UTC NOAA

KPHD 010153Z AUTO 12006KT 10SM CLR 22/15 A3009 RMK AO2 SLP184 T02220150


Station Type Date Time Source
KPHD Decoded METAR 2022/07/01 01:53 UTC NOAA

NEW PHILADELPHIA CLEVER FLD, OH, United States (KPHD) 40-28N 81-25W 272M
Jun 30, 2022 - 09:53 PM EDT / 2022.07.01 0153 UTC
Wind: from the ESE (120 degrees) at 7 MPH (6 KT):0
Visibility: 10 mile(s):0
Sky conditions: clear
Temperature: 72.0 F (22.2 C)
Dew Point: 59.0 F (15.0 C)
Relative Humidity: 63%
Pressure (altimeter): 30.09 in. Hg (1018 hPa)
ob: KPHD 010153Z AUTO 12006KT 10SM CLR 22/15 A3009 RMK AO2 SLP184 T02220150
cycle: 2

Station Type Date Time Source
KPHD TAF UTC NOAA

Error!

Example: see airport list